Latest Coastal Weather Observations for Point Fawcett

IDD60701

Issued at 9:01 am CST Wednesday 18 January 2017 (issued every 10 minutes, with the page automatically refreshed every 10 minutes)

About coastal observations | Map of coastal stations | Coastal observations for NT | Marine services | Other Formats
Station Details ID: 200731 Name: POINT FAWCETT Lat: -11.76 Lon: 130.03 Height: 6.5 m
Data from the previous 72 hours. | See also: Recent months at Point Fawcett
Date/Time
CST
Temp
°C
Wind Pressure Rain since
9am
mm
Weather Cloud Vis
km
Sea
Height
m
Swell
Dir  Spd
kts
Gust
kts
hPa Trend Height
m
Period
s
Dir
18/09:00am 30.8 WNW 5 6 1010.3 - 14.8 - - - - - - -
18/08:30am 29.7 NW 6 7 1010.3 - 14.8 - - - - - - -
18/08:00am 29.6 WNW 5 7 1010.1 - 14.8 - - - - - - -
18/07:30am 28.9 WNW 6 8 1010.1 - 14.8 - - - - - - -
18/07:00am 28.4 WNW 5 7 1009.7 - 14.8 - - - - - - -
18/06:30am 28.4 W 6 8 1009.2 - 14.8 - - - - - - -
18/06:00am 28.3 WNW 7 9 1008.5 - 14.8 - - - - - - -
18/05:30am 28.2 WNW 7 9 1008.0 - 14.8 - - - - - - -
18/05:00am 28.3 WNW 8 9 1007.8 - 14.8 - - - - - - -
18/04:30am 28.5 WNW 9 11 1007.9 - 14.8 - - - - - - -
18/04:00am 28.6 WNW 10 12 1007.9 - 14.8 - - - - - - -
18/03:30am 28.5 WNW 10 12 1007.8 - 14.8 - - - - - - -
18/03:00am 28.2 NW 8 11 1007.8 - 14.8 - - - - - - -
18/02:30am 28.2 NW 8 11 1008.1 - 14.8 - - - - - - -
18/02:00am 28.2 NW 9 13 1008.5 - 14.8 - - - - - - -
18/01:30am 28.2 NW 9 12 1008.7 - 14.8 - - - - - - -
18/01:00am 28.0 NNW 10 13 1008.8 - 14.8 - - - - - - -
18/12:30am 28.0 NW 10 13 1009.0 - 14.8 - - - - - - -
18/12:00am 27.8 NW 11 13 1009.3 - 14.8 - - - - - - -
 
Date/Time
CST
Temp
°C
Wind Pressure Rain since
9am
mm
Weather Cloud Vis
km
Sea
Height
m
Swell
Dir  Spd
kts
Gust
kts
hPa Trend Height
m
Period
s
Dir
17/11:30pm 27.7 NNW 10 14 1009.8 - 14.8 - - - - - - -
17/11:00pm 27.3 NNW 11 15 1010.2 - 14.8 - - - - - - -
17/10:30pm 26.6 NNW 10 12 1010.2 - 14.8 - - - - - - -
17/10:00pm 25.2 NNW 10 12 1010.5 - 14.4 - - - - - - -
17/09:41pm 25.2 NNW 23 33 1010.5 - 7.6 - - - - - - -
17/09:30pm 27.6 NNW 23 29 1010.1 - 0.0 - - - - - - -
17/09:27pm 28.3 NNW 21 25 1010.2 - 0.0 - - - - - - -
17/09:00pm 29.3 N 10 16 1009.5 - 0.0 - - - - - - -
17/08:30pm 29.5 NNW 7 9 1009.0 - 0.0 - - - - - - -
17/08:00pm 29.5 N 9 13 1009.0 - 0.0 - - - - - - -
17/07:30pm 29.5 NNW 11 14 1008.5 - 0.0 - - - - - - -
17/07:00pm 30.4 N 8 11 1008.1 - 0.0 - - - - - - -
17/06:30pm 31.2 N 9 11 1007.5 - 0.0 - - - - - - -
17/06:00pm 32.3 N 10 13 1007.0 - 0.0 - - - - - - -
17/05:30pm 32.7 N 10 14 1006.8 - 0.0 - - - - - - -
17/05:00pm 32.7 N 9 13 1006.6 - 0.0 - - - - - - -
17/04:30pm 33.4 N 9 12 1006.7 - 0.0 - - - - - - -
17/04:00pm 33.8 N 8 11 1006.8 - 0.0 - - - - - - -
17/03:30pm 33.6 N 7 11 1006.8 - 0.0 - - - - - - -
17/03:00pm 33.6 N 8 11 1007.0 - 0.0 - - - - - - -
17/02:30pm 33.6 N 8 11 1007.3 - 0.0 - - - - - - -
17/02:00pm 33.8 N 7 11 1007.8 - 0.0 - - - - - - -
17/01:30pm 32.7 N 8 11 1008.0 - 0.0 - - - - - - -
17/01:00pm 32.8 NNW 7 10 1008.2 - 0.0 - - - - - - -
17/12:30pm 32.9 N 7 10 1008.3 - 0.0 - - - - - - -
17/12:00pm 32.9 N 6 9 1008.4 - 0.0 - - - - - - -
17/11:30am 32.0 NNW 6 9 1008.9 - 0.0 - - - - - - -
17/11:00am 32.3 NNW 6 8 1009.1 - 0.0 - - - - - - -
17/10:30am 31.9 NNW 6 8 1009.4 - 0.0 - - - - - - -
17/10:00am 31.3 NNW 5 7 1009.5 - 0.0 - - - - - - -
17/09:30am 30.8 NW 5 6 1009.6 - 0.0 - - - - - - -
17/09:00am 29.7 NW 5 7 1009.2 - 0.0 - - - - - - -
17/08:30am 27.9 N 2 4 1009.2 - 0.0 - - - - - - -
17/08:00am 26.3 CALM 0 0 1009.1 - 0.0 - - - - - - -
17/07:30am 24.7 CALM 0 0 1008.6 - 0.0 - - - - - - -
17/07:00am 23.6 CALM 0 0 1008.0 - 0.0 - - - - - - -
17/06:30am 23.5 SSW 1 3 1007.5 - 0.0 - - - - - - -
17/06:00am 23.5 SSW 3 4 1007.1 - 0.0 - - - - - - -
17/05:30am 24.1 SW 2 4 1006.9 - 0.0 - - - - - - -
17/05:00am 24.4 CALM 0 3 1006.6 - 0.0 - - - - - - -
17/04:30am 24.7 WSW 1 3 1006.6 - 0.0 - - - - - - -
17/04:00am 25.3 CALM 0 0 1006.3 - 0.0 - - - - - - -
17/03:30am 26.2 NW 4 6 1006.5 - 0.0 - - - - - - -
17/03:00am 27.9 WNW 5 7 1006.4 - 0.0 - - - - - - -
17/02:30am 28.0 WNW 6 7 1006.8 - 0.0 - - - - - - -
17/02:00am 28.1 WNW 6 8 1007.0 - 0.0 - - - - - - -
17/01:30am 27.5 W 6 9 1007.4 - 0.0 - - - - - - -
17/01:00am 28.1 WNW 6 8 1007.5 - 0.0 - - - - - - -
17/12:30am 28.3 W 7 9 1007.7 - 0.0 - - - - - - -
17/12:00am 28.8 WNW 7 9 1007.9 - 0.0 - - - - - - -
 
Date/Time
CST
Temp
°C
Wind Pressure Rain since
9am
mm
Weather Cloud Vis
km
Sea
Height
m
Swell
Dir  Spd
kts
Gust
kts
hPa Trend Height
m
Period
s
Dir
16/11:30pm 28.9 WNW 8 11 1008.2 - 0.0 - - - - - - -
16/11:00pm 29.0 WNW 8 11 1008.3 - 0.0 - - - - - - -
16/10:30pm 29.0 W 8 10 1008.1 - 0.0 - - - - - - -
16/10:00pm 28.9 WNW 7 9 1007.7 - 0.0 - - - - - - -
16/09:30pm 29.0 NW 7 9 1007.3 - 0.0 - - - - - - -
16/09:00pm 29.0 WNW 7 10 1007.2 - 0.0 - - - - - - -
16/08:30pm 29.0 WNW 7 9 1007.4 - 0.0 - - - - - - -
16/08:00pm 29.2 WNW 8 10 1007.4 - 0.0 - - - - - - -
16/07:30pm 29.2 W 7 9 1007.2 - 0.0 - - - - - - -
16/07:00pm 29.2 W 6 8 1006.8 - 0.0 - - - - - - -
16/06:30pm 29.5 W 6 9 1006.8 - 0.0 - - - - - - -
16/06:00pm 29.7 W 7 9 1006.5 - 0.0 - - - - - - -
16/05:30pm 29.9 W 7 9 1006.4 - 0.0 - - - - - - -
16/05:00pm 30.1 W 7 10 1006.0 - 0.0 - - - - - - -
16/04:30pm 30.4 W 8 11 1006.1 - 0.0 - - - - - - -
16/04:00pm 30.9 W 10 12 1006.1 - 0.0 - - - - - - -
16/03:30pm 30.9 W 10 13 1006.3 - 0.0 - - - - - - -
16/03:00pm 31.4 WNW 9 12 1006.5 - 0.0 - - - - - - -
16/02:30pm 31.5 WNW 9 11 1006.9 - 0.0 - - - - - - -
16/02:00pm 31.7 W 9 11 1007.4 - 0.0 - - - - - - -
16/01:30pm 32.1 W 8 12 1007.8 - 0.0 - - - - - - -
16/01:00pm 32.2 W 8 11 1008.1 - 0.0 - - - - - - -
16/12:30pm 31.7 W 9 11 1008.4 - 0.0 - - - - - - -
16/12:00pm 31.6 WNW 9 11 1008.8 - 0.0 - - - - - - -
16/11:30am 31.6 W 9 13 1009.3 - 0.0 - - - - - - -
16/11:00am 31.3 W 9 12 1009.3 - 0.0 - - - - - - -
16/10:30am 31.4 WNW 10 13 1009.2 - 0.0 - - - - - - -
16/10:00am 31.3 WNW 9 13 1009.1 - 0.0 - - - - - - -
16/09:30am 31.0 WNW 9 12 1009.0 - 0.0 - - - - - - -
16/09:00am 30.8 WNW 10 13 1008.7 - 0.0 - - - - - - -
16/08:30am 29.7 WNW 9 11 1008.6 - 0.0 - - - - - - -
16/08:00am 29.3 NW 8 10 1008.5 - 0.0 - - - - - - -
16/07:30am 29.0 WNW 8 10 1008.1 - 0.0 - - - - - - -
16/07:00am 28.6 WNW 8 10 1007.7 - 0.0 - - - - - - -
16/06:30am 28.5 WNW 8 9 1007.5 - 0.0 - - - - - - -
16/06:00am 28.5 W 7 9 1007.2 - 0.0 - - - - - - -
16/05:30am 28.6 W 7 9 1006.6 - 0.0 - - - - - - -
16/05:00am 28.5 W 7 10 1006.5 - 0.0 - - - - - - -
16/04:30am 28.4 W 7 9 1006.4 - 0.0 - - - - - - -
16/04:00am 28.1 W 6 8 1006.4 - 0.0 - - - - - - -
16/03:30am 28.4 W 6 7 1006.5 - 0.0 - - - - - - -
16/03:00am 28.5 W 7 9 1006.4 - 0.0 - - - - - - -
16/02:30am 28.7 WNW 8 9 1006.5 - 0.0 - - - - - - -
16/02:00am 28.7 W 7 10 1006.8 - 0.0 - - - - - - -
16/01:30am 28.7 W 8 10 1007.1 - 0.0 - - - - - - -
16/01:00am 28.8 WNW 8 10 1007.4 - 0.0 - - - - - - -
16/12:30am 28.8 WNW 7 10 1007.5 - 0.0 - - - - - - -
16/12:00am 28.7 W 7 8 1007.7 - 0.0 - - - - - - -
 
Date/Time
CST
Temp
°C
Wind Pressure Rain since
9am
mm
Weather Cloud Vis
km
Sea
Height
m
Swell
Dir  Spd
kts
Gust
kts
hPa Trend Height
m
Period
s
Dir
15/11:30pm 28.6 W 6 9 1008.2 - 0.0 - - - - - - -
15/11:00pm 28.5 W 5 8 1008.3 - 0.0 - - - - - - -
15/10:30pm 28.9 W 6 8 1008.3 - 0.0 - - - - - - -
15/10:00pm 29.1 WNW 7 9 1008.1 - 0.0 - - - - - - -
15/09:30pm 29.0 WNW 7 10 1007.9 - 0.0 - - - - - - -
15/09:00pm 29.0 W 7 8 1007.8 - 0.0 - - - - - - -
15/08:30pm 29.0 W 6 8 1007.8 - 0.0 - - - - - - -
15/08:00pm 29.1 WNW 6 7 1007.6 - 0.0 - - - - - - -
15/07:30pm 29.1 W 5 7 1007.3 - 0.0 - - - - - - -
15/07:00pm 29.7 W 5 7 1007.1 - 0.0 - - - - - - -
15/06:30pm 30.4 W 4 6 1007.1 - 0.0 - - - - - - -
15/06:00pm 30.9 W 5 7 1006.8 - 0.0 - - - - - - -
15/05:30pm 31.0 WNW 6 8 1006.5 - 0.0 - - - - - - -
15/05:00pm 30.7 W 5 7 1006.3 - 0.0 - - - - - - -
15/04:30pm 30.9 W 6 7 1006.4 - 0.0 - - - - - - -
15/04:00pm 31.1 W 6 8 1006.8 - 0.0 - - - - - - -
15/03:30pm 32.4 W 7 10 1007.2 - 0.0 - - - - - - -
15/03:00pm 31.7 W 8 10 1007.2 - 0.0 - - - - - - -
15/02:30pm 32.4 W 6 9 1007.8 - 0.0 - - - - - - -
15/02:00pm 31.9 W 7 9 1008.3 - 0.0 - - - - - - -
15/01:30pm 32.1 WNW 6 8 1008.3 - 0.0 - - - - - - -
15/01:00pm 31.8 WNW 6 8 1008.7 - 0.0 - - - - - - -
15/12:30pm 32.0 WNW 6 7 1008.9 - 0.0 - - - - - - -
15/12:00pm 31.4 W 6 8 1009.0 - 0.0 - - - - - - -
15/11:30am 31.4 W 6 8 1009.4 - 0.0 - - - - - - -
15/11:00am 31.6 W 5 7 1009.7 - 0.0 - - - - - - -
15/10:30am 30.4 W 6 8 1009.9 - 0.0 - - - - - - -
15/10:00am 31.1 WNW 4 6 1010.1 - 0.0 - - - - - - -
15/09:30am 30.5 WNW 5 7 1010.2 - 0.0 - - - - - - -

Other Formats:

Comma delimited format used in spreadsheet applications
http://www.bom.gov.au/fwo/IDD60701/IDD60701.94122.axf

JavaScript Object Notation format (JSON) in row-major order
http://www.bom.gov.au/fwo/IDD60701/IDD60701.94122.json